Observation data for Brownfield on 02/15/2017      Previous  Date  Next       Current Mesonet Observations  Soil Data  Daily Summary Page  Observations in Plain Language
KBWS 150600Z 29009KT 02/M01 A302 RMK A01 T00151011  RH  084%=      5-min Rain = 0
KBWS 150605Z 29009KT 02/M01 A302 RMK A01 T00151012  RH  084%=      5-min Rain = 0
KBWS 150610Z 29009KT 02/M01 A302 RMK A01 T00151012  RH  083%=      5-min Rain = 0
KBWS 150615Z 29010KT 01/M01 A302 RMK A01 T00141012  RH  084%=      5-min Rain = 0
KBWS 150620Z 29010KT 01/M01 A302 RMK A01 T00131013  RH  083%=      5-min Rain = 0
KBWS 150625Z 29011KT 01/M01 A302 RMK A01 T00131014  RH  083%=      5-min Rain = 0
KBWS 150630Z 29011KT 01/M02 A302 RMK A01 T00121015  RH  084%=      5-min Rain = 0
KBWS 150635Z 30011KT 01/M02 A302 RMK A01 T00101015  RH  084%=      5-min Rain = 0
KBWS 150640Z 30011KT 01/M02 A302 RMK A01 T00111016  RH  083%=      5-min Rain = 0
KBWS 150645Z 30011KT 01/M02 A302 RMK A01 T00101017  RH  083%=      5-min Rain = 0
KBWS 150650Z 30012KT 01/M02 A302 RMK A01 T00111018  RH  082%=      5-min Rain = 0
KBWS 150655Z 30012KT 01/M02 A302 RMK A01 T00131019  RH  080%=      5-min Rain = 0
KBWS 150700Z 31011KT 01/M02 A302 RMK A01 T00131019  RH  080%=      5-min Rain = 0
KBWS 150705Z 30011KT 01/M02 A302 RMK A01 T00121019  RH  080%=      5-min Rain = 0
KBWS 150710Z 30012KT 01/M02 A302 RMK A01 T00121019  RH  080%=      5-min Rain = 0
KBWS 150715Z 30012KT 01/M02 A302 RMK A01 T00121020  RH  080%=      5-min Rain = 0
KBWS 150720Z 31010KT 01/M02 A302 RMK A01 T00121020  RH  080%=      5-min Rain = 0
KBWS 150725Z 30010KT 01/M02 A302 RMK A01 T00131020  RH  079%=      5-min Rain = 0
KBWS 150730Z 30010KT 01/M02 A3021 RMK A01 T00121021  RH  080%=      5-min Rain = 0
KBWS 150735Z 30010KT 01/M02 A3021 RMK A01 T00111020  RH  081%=      5-min Rain = 0
KBWS 150740Z 30011KT 01/M02 A3021 RMK A01 T00111021  RH  080%=      5-min Rain = 0
KBWS 150745Z 30010KT 01/M02 A3021 RMK A01 T00111021  RH  081%=      5-min Rain = 0
KBWS 150750Z 30011KT 01/M02 A3021 RMK A01 T00111021  RH  080%=      5-min Rain = 0
KBWS 150755Z 30011KT 01/M02 A3021 RMK A01 T00121021  RH  079%=      5-min Rain = 0
KBWS 150800Z 31011KT 01/M02 A3021 RMK A01 T00131022  RH  079%=      5-min Rain = 0
KBWS 150805Z 31012KT 01/M02 A3021 RMK A01 T00131022  RH  078%=      5-min Rain = 0
KBWS 150810Z 31011KT 01/M02 A3021 RMK A01 T00131023  RH  078%=      5-min Rain = 0
KBWS 150815Z 31011KT 01/M02 A3021 RMK A01 T00111023  RH  079%=      5-min Rain = 0
KBWS 150820Z 31011KT 01/M02 A3021 RMK A01 T00101022  RH  080%=      5-min Rain = 0
KBWS 150825Z 31010KT 01/M02 A3021 RMK A01 T00091022  RH  081%=      5-min Rain = 0
KBWS 150830Z 31010KT 01/M02 A3021 RMK A01 T00091022  RH  081%=      5-min Rain = 0
KBWS 150835Z 31011KT 01/M02 A3021 RMK A01 T00091022  RH  080%=      5-min Rain = 0
KBWS 150840Z 32010KT 01/M02 A3021 RMK A01 T00101022  RH  080%=      5-min Rain = 0
KBWS 150845Z 32011KT 01/M02 A3021 RMK A01 T00101022  RH  080%=      5-min Rain = 0
KBWS 150850Z 32011KT 01/M02 A3021 RMK A01 T00091022  RH  081%=      5-min Rain = 0
KBWS 150855Z 32010KT 01/M02 A3021 RMK A01 T00101022  RH  080%=      5-min Rain = 0
KBWS 150900Z 32010KT 01/M02 A302 RMK A01 T00091022  RH  081%=      5-min Rain = 0
KBWS 150905Z 32011KT 01/M02 A302 RMK A01 T00101022  RH  080%=      5-min Rain = 0
KBWS 150910Z 32010KT 01/M02 A302 RMK A01 T00101022  RH  080%=      5-min Rain = 0
KBWS 150915Z 32011KT 01/M02 A302 RMK A01 T00091022  RH  080%=      5-min Rain = 0
KBWS 150920Z 32010KT 01/M02 A302 RMK A01 T00101022  RH  080%=      5-min Rain = 0
KBWS 150925Z 32011KT 01/M02 A302 RMK A01 T00091022  RH  081%=      5-min Rain = 0
KBWS 150930Z 32011KT 01/M02 A302 RMK A01 T00091022  RH  080%=      5-min Rain = 0
KBWS 150935Z 32011KT 01/M02 A3021 RMK A01 T00081023  RH  081%=      5-min Rain = 0
KBWS 150940Z 32011KT 01/M02 A3021 RMK A01 T00081023  RH  081%=      5-min Rain = 0
KBWS 150945Z 32011KT 01/M02 A3021 RMK A01 T00071023  RH  081%=      5-min Rain = 0
KBWS 150950Z 32010KT 01/M02 A3021 RMK A01 T00071023  RH  081%=      5-min Rain = 0
KBWS 150955Z 32010KT 01/M02 A3021 RMK A01 T00081023  RH  081%=      5-min Rain = 0
KBWS 151000Z 32011KT 01/M02 A3021 RMK A01 T00091023  RH  080%=      5-min Rain = 0
KBWS 151005Z 32010KT 01/M02 A3021 RMK A01 T00091023  RH  080%=      5-min Rain = 0
KBWS 151010Z 32010KT 01/M02 A3021 RMK A01 T00091024  RH  080%=      5-min Rain = 0
KBWS 151015Z 32010KT 01/M02 A3021 RMK A01 T00091024  RH  080%=      5-min Rain = 0
KBWS 151020Z 31010KT 01/M02 A3021 RMK A01 T00091024  RH  080%=      5-min Rain = 0
KBWS 151025Z 32010KT 01/M02 A3021 RMK A01 T00081024  RH  080%=      5-min Rain = 0
KBWS 151030Z 31009KT 01/M02 A3021 RMK A01 T00081024  RH  080%=      5-min Rain = 0
KBWS 151035Z 31009KT 01/M02 A3021 RMK A01 T00061024  RH  081%=      5-min Rain = 0
KBWS 151040Z 31009KT 01/M03 A3021 RMK A01 T00071025  RH  081%=      5-min Rain = 0
KBWS 151045Z 31009KT 01/M03 A3021 RMK A01 T00061025  RH  081%=      5-min Rain = 0
KBWS 151050Z 31009KT 01/M03 A3021 RMK A01 T00061025  RH  081%=      5-min Rain = 0
KBWS 151055Z 31009KT 01/M03 A3021 RMK A01 T00051025  RH  081%=      5-min Rain = 0
KBWS 151100Z 32009KT 01/M03 A3021 RMK A01 T00061025  RH  080%=      5-min Rain = 0
KBWS 151105Z 32009KT 01/M03 A3021 RMK A01 T00071026  RH  079%=      5-min Rain = 0
KBWS 151110Z 32009KT 01/M03 A3021 RMK A01 T00081027  RH  079%=      5-min Rain = 0
KBWS 151115Z 32010KT 01/M03 A3021 RMK A01 T00081028  RH  078%=      5-min Rain = 0
KBWS 151120Z 32010KT 01/M03 A3021 RMK A01 T00081028  RH  078%=      5-min Rain = 0
KBWS 151125Z 32010KT 01/M03 A3021 RMK A01 T00061028  RH  078%=      5-min Rain = 0
KBWS 151130Z 31010KT 01/M03 A3021 RMK A01 T00051029  RH  079%=      5-min Rain = 0
KBWS 151135Z 31009KT 01/M03 A3022 RMK A01 T00051028  RH  079%=      5-min Rain = 0
KBWS 151140Z 31009KT 00/M03 A3022 RMK A01 T00041028  RH  080%=      5-min Rain = 0
KBWS 151145Z 31009KT 00/M03 A3022 RMK A01 T00041027  RH  081%=      5-min Rain = 0
KBWS 151150Z 31010KT 01/M03 A3022 RMK A01 T00051027  RH  080%=      5-min Rain = 0
KBWS 151155Z 31010KT 00/M03 A3022 RMK A01 T00041027  RH  081%=      5-min Rain = 0
KBWS 151200Z 31010KT 00/M03 A3021 RMK A01 T00041027  RH  080%=      5-min Rain = 0
KBWS 151205Z 31010KT 01/M03 A3021 RMK A01 T00051028  RH  080%=      5-min Rain = 0
KBWS 151210Z 31010KT 00/M03 A3021 RMK A01 T00031028  RH  081%=      5-min Rain = 0
KBWS 151215Z 31009KT 00/M03 A3021 RMK A01 T00031028  RH  080%=      5-min Rain = 0
KBWS 151220Z 30009KT 00/M03 A3022 RMK A01 T00031028  RH  080%=      5-min Rain = 0
KBWS 151225Z 30009KT 00/M03 A3022 RMK A01 T00021028  RH  081%=      5-min Rain = 0
KBWS 151230Z 30009KT 00/M03 A3022 RMK A01 T00011028  RH  082%=      5-min Rain = 0
KBWS 151235Z 31010KT 00/M03 A3022 RMK A01 T00011029  RH  081%=      5-min Rain = 0
KBWS 151240Z 31010KT 00/03 A3022 RMK A01 T00000-29  RH  082%=      5-min Rain = 0
KBWS 151245Z 31010KT 00/03 A3022 RMK A01 T00000-29  RH  081%=      5-min Rain = 0
KBWS 151250Z 31010KT M00/M03 A3022 RMK A01 T10011029  RH  082%=      5-min Rain = 0
KBWS 151255Z 31010KT M00/M03 A3022 RMK A01 T10021030  RH  082%=      5-min Rain = 0
KBWS 151300Z 32010KT M00/M03 A3022 RMK A01 T10021030  RH  082%=      5-min Rain = 0
KBWS 151305Z 32011KT M00/M03 A3022 RMK A01 T10011031  RH  081%=      5-min Rain = 0
KBWS 151310Z 32011KT M00/M03 A3022 RMK A01 T10011031  RH  081%=      5-min Rain = 0
KBWS 151315Z 32010KT M00/M03 A3022 RMK A01 T10011032  RH  081%=      5-min Rain = 0
KBWS 151320Z 32011KT 00/03 A3023 RMK A01 T00-00-32  RH  080%=      5-min Rain = 0
KBWS 151325Z 32011KT 00/M03 A3023 RMK A01 T00011032  RH  080%=      5-min Rain = 0
KBWS 151330Z 32010KT 00/03 A3023 RMK A01 T00000-32  RH  080%=      5-min Rain = 0
KBWS 151335Z 32010KT 00/03 A3023 RMK A01 T00000-32  RH  080%=      5-min Rain = 0
KBWS 151340Z 32011KT 00/M03 A3024 RMK A01 T00011032  RH  079%=      5-min Rain = 0
KBWS 151345Z 32010KT 00/M03 A3024 RMK A01 T00011032  RH  079%=      5-min Rain = 0
KBWS 151350Z 32010KT 00/M03 A3024 RMK A01 T00031031  RH  079%=      5-min Rain = 0
KBWS 151355Z 32011KT 01/M03 A3024 RMK A01 T00051031  RH  078%=      5-min Rain = 0
KBWS 151400Z 32011KT 01/M03 A3024 RMK A01 T00071032  RH  076%=      5-min Rain = 0
KBWS 151405Z 32011KT 01/M03 A3024 RMK A01 T00081031  RH  076%=      5-min Rain = 0
KBWS 151410Z 33011KT 01/M03 A3025 RMK A01 T00091031  RH  075%=      5-min Rain = 0
KBWS 151415Z 33010KT 01/M03 A3025 RMK A01 T00111031  RH  074%=      5-min Rain = 0
KBWS 151420Z 33011KT 01/M03 A3025 RMK A01 T00131031  RH  073%=      5-min Rain = 0
KBWS 151425Z 33010KT 01/M03 A3025 RMK A01 T00141030  RH  073%=      5-min Rain = 0
KBWS 151430Z 33012KT 02/M03 A3025 RMK A01 T00161031  RH  072%=      5-min Rain = 0
KBWS 151435Z 33011KT 02/M03 A3025 RMK A01 T00171029  RH  072%=      5-min Rain = 0
KBWS 151440Z 33011KT 02/M03 A3026 RMK A01 T00191028  RH  072%=      5-min Rain = 0
KBWS 151445Z 34011KT 02/M03 A3026 RMK A01 T00201028  RH  071%=      5-min Rain = 0
KBWS 151450Z 34011KT 02/M03 A3026 RMK A01 T00221028  RH  070%=      5-min Rain = 0
KBWS 151455Z 34011KT 02/M03 A3026 RMK A01 T00241027  RH  070%=      5-min Rain = 0
KBWS 151500Z 33012KT 03/M03 A3026 RMK A01 T00251027  RH  069%=      5-min Rain = 0
KBWS 151505Z 34012KT 03/M03 A3026 RMK A01 T00271026  RH  069%=      5-min Rain = 0
KBWS 151510Z 34012KT 03/M03 A3027 RMK A01 T00281025  RH  069%=      5-min Rain = 0
KBWS 151515Z 34011KT 03/M02 A3027 RMK A01 T00311023  RH  069%=      5-min Rain = 0
KBWS 151520Z 34012KT 03/M02 A3027 RMK A01 T00321023  RH  068%=      5-min Rain = 0
KBWS 151525Z 33011KT 04/M02 A3027 RMK A01 T00351021  RH  068%=      5-min Rain = 0
KBWS 151530Z 34009KT 04/M02 A3027 RMK A01 T00391018  RH  067%=      5-min Rain = 0
KBWS 151535Z 34010KT 04/M02 A3028 RMK A01 T00431019  RH  065%=      5-min Rain = 0
KBWS 151540Z 35010KT 05/M02 A3028 RMK A01 T00471019  RH  063%=      5-min Rain = 0
KBWS 151545Z 35009KT 05/M02 A3028 RMK A01 T00491019  RH  062%=      5-min Rain = 0
KBWS 151550Z 35010KT 05/M02 A3028 RMK A01 T00521017  RH  062%=      5-min Rain = 0
KBWS 151555Z 35010KT 05/M02 A3028 RMK A01 T00531019  RH  060%=      5-min Rain = 0
KBWS 151600Z 36011G16KT 06/M02 A3028 RMK A01 T00561020  RH  059%=      5-min Rain = 0
KBWS 151605Z 36013KT 06/M02 A3028 RMK A01 T00581021  RH  057%=      5-min Rain = 0
KBWS 151610Z 36011KT 06/M02 A3028 RMK A01 T00591020  RH  058%=      5-min Rain = 0
KBWS 151615Z 36011KT 06/M02 A3028 RMK A01 T00621016  RH  058%=      5-min Rain = 0
KBWS 151620Z 00010G15KT 06/M01 A3028 RMK A01 T00641014  RH  058%=      5-min Rain = 0
KBWS 151625Z 01012KT 07/M02 A3028 RMK A01 T00651017  RH  057%=      5-min Rain = 0
KBWS 151630Z 01013KT 06/M02 A3028 RMK A01 T00631019  RH  056%=      5-min Rain = 0
KBWS 151635Z 36010KT 07/M01 A3028 RMK A01 T00651012  RH  058%=      5-min Rain = 0
KBWS 151640Z 36010KT 07/M01 A3028 RMK A01 T00661012  RH  058%=      5-min Rain = 0
KBWS 151645Z 01010KT 07/M01 A3028 RMK A01 T00681009  RH  059%=      5-min Rain = 0
KBWS 151650Z 01010KT 07/M01 A3028 RMK A01 T00711008  RH  058%=      5-min Rain = 0
KBWS 151655Z 35009KT 07/M01 A3028 RMK A01 T00721006  RH  058%=      5-min Rain = 0
KBWS 151700Z 36009KT 07/M01 A3028 RMK A01 T00731008  RH  057%=      5-min Rain = 0
KBWS 151705Z 36009KT 07/M01 A3028 RMK A01 T00741008  RH  057%=      5-min Rain = 0
KBWS 151710Z 36010KT 08/M01 A3028 RMK A01 T00771007  RH  056%=      5-min Rain = 0
KBWS 151715Z 01008KT 08/M00 A3028 RMK A01 T00791004  RH  056%=      5-min Rain = 0
KBWS 151720Z 01008KT 08/M01 A3028 RMK A01 T00811006  RH  055%=      5-min Rain = 0
KBWS 151725Z 01008KT 08/00 A3028 RMK A01 T008400-0  RH  056%=      5-min Rain = 0
KBWS 151730Z 00007KT 08/M01 A3028 RMK A01 T00821005  RH  055%=      5-min Rain = 0
KBWS 151735Z 01008KT 08/M00 A3028 RMK A01 T00831004  RH  055%=      5-min Rain = 0
KBWS 151740Z 00009KT 09/M00 A3028 RMK A01 T00861001  RH  055%=      5-min Rain = 0
KBWS 151745Z 01007KT 09/M01 A3028 RMK A01 T00851006  RH  053%=      5-min Rain = 0
KBWS 151750Z 01008KT 09/M00 A3028 RMK A01 T00881001  RH  054%=      5-min Rain = 0
KBWS 151755Z 02008KT 09/M01 A3028 RMK A01 T00891010  RH  050%=      5-min Rain = 0
KBWS 151800Z 01008G13KT 09/M01 A3028 RMK A01 T00911005  RH  052%=      5-min Rain = 0
KBWS 151805Z 01008KT 09/M01 A3027 RMK A01 T00921008  RH  050%=      5-min Rain = 0
KBWS 151810Z 01008KT 09/M01 A3027 RMK A01 T00921014  RH  048%=      5-min Rain = 0
KBWS 151815Z 02009KT 09/M02 A3027 RMK A01 T00941024  RH  044%=      5-min Rain = 0
KBWS 151820Z 02008KT 10/M02 A3027 RMK A01 T00951019  RH  045%=      5-min Rain = 0
KBWS 151825Z 02008KT 09/M02 A3026 RMK A01 T00941019  RH  045%=      5-min Rain = 0
KBWS 151830Z 01009KT 10/M02 A3026 RMK A01 T00961015  RH  047%=      5-min Rain = 0
KBWS 151835Z 01009KT 10/M01 A3026 RMK A01 T00971014  RH  046%=      5-min Rain = 0
KBWS 151840Z 03007KT 10/M01 A3025 RMK A01 T00971012  RH  047%=      5-min Rain = 0
KBWS 151845Z 02007KT 10/M01 A3025 RMK A01 T00971014  RH  046%=      5-min Rain = 0
KBWS 151850Z 01008KT 10/M01 A3025 RMK A01 T00991013  RH  046%=      5-min Rain = 0
KBWS 151855Z 35009G14KT 10/M01 A3025 RMK A01 T01001013  RH  046%=      5-min Rain = 0
KBWS 151900Z 01009G14KT 10/M02 A3025 RMK A01 T00991021  RH  044%=      5-min Rain = 0
KBWS 151905Z 02011G16KT 10/M02 A3024 RMK A01 T01011015  RH  045%=      5-min Rain = 0
KBWS 151910Z 01009KT 10/M02 A3024 RMK A01 T01021018  RH  044%=      5-min Rain = 0
KBWS 151915Z 35006KT 10/M02 A3024 RMK A01 T01011017  RH  044%=      5-min Rain = 0
KBWS 151920Z 00008G14KT 10/M02 A3023 RMK A01 T01041015  RH  044%=      5-min Rain = 0
KBWS 151925Z 02011KT 11/M02 A3023 RMK A01 T01061019  RH  042%=      5-min Rain = 0
KBWS 151930Z 02009G14KT 11/M02 A3023 RMK A01 T01051019  RH  042%=      5-min Rain = 0
KBWS 151935Z 36008KT 11/M01 A3022 RMK A01 T01071012  RH  044%=      5-min Rain = 0
KBWS 151940Z 35008KT 11/M02 A3022 RMK A01 T01071019  RH  042%=      5-min Rain = 0
KBWS 151945Z 01008KT 11/M02 A3022 RMK A01 T01101016  RH  042%=      5-min Rain = 0
KBWS 151950Z 00011KT 11/M01 A3022 RMK A01 T01111014  RH  042%=      5-min Rain = 0
KBWS 151955Z 01009KT 11/M02 A3021 RMK A01 T01081023  RH  040%=      5-min Rain = 0
KBWS 152000Z 01008G13KT 11/M02 A3021 RMK A01 T01091020  RH  041%=      5-min Rain = 0
KBWS 152005Z 35008KT 11/M01 A3021 RMK A01 T01121013  RH  042%=      5-min Rain = 0
KBWS 152010Z 33008G13KT 11/M02 A302 RMK A01 T01121019  RH  041%=      5-min Rain = 0
KBWS 152015Z 36008G13KT 11/M02 A302 RMK A01 T01141015  RH  041%=      5-min Rain = 0
KBWS 152020Z 02007G12KT 11/M02 A302 RMK A01 T01141018  RH  040%=      5-min Rain = 0
KBWS 152025Z 03008G15KT 11/M02 A302 RMK A01 T01131020  RH  040%=      5-min Rain = 0
KBWS 152030Z 35007KT 12/M02 A3019 RMK A01 T01161016  RH  040%=      5-min Rain = 0
KBWS 152035Z 35006KT 11/M02 A3019 RMK A01 T01141023  RH  039%=      5-min Rain = 0
KBWS 152040Z 35007G13KT 12/M02 A3019 RMK A01 T01171019  RH  039%=      5-min Rain = 0
KBWS 152045Z 35007G13KT 12/M02 A3019 RMK A01 T01171021  RH  039%=      5-min Rain = 0
KBWS 152050Z 35009G14KT 12/M02 A3019 RMK A01 T01191023  RH  037%=      5-min Rain = 0
KBWS 152055Z 01007KT 12/M02 A3018 RMK A01 T01181023  RH  038%=      5-min Rain = 0
KBWS 152100Z 02007G12KT 12/M02 A3018 RMK A01 T01181022  RH  038%=      5-min Rain = 0
KBWS 152105Z 35009KT 12/M02 A3018 RMK A01 T01211024  RH  037%=      5-min Rain = 0
KBWS 152110Z 35006KT 12/M03 A3018 RMK A01 T01201028  RH  036%=      5-min Rain = 0
KBWS 152115Z 01007KT 12/M02 A3018 RMK A01 T01211023  RH  037%=      5-min Rain = 0
KBWS 152120Z 02008KT 12/M03 A3018 RMK A01 T01211026  RH  036%=      5-min Rain = 0
KBWS 152125Z 36007KT 12/M03 A3018 RMK A01 T01201026  RH  036%=      5-min Rain = 0
KBWS 152130Z 31006KT 12/M02 A3018 RMK A01 T01231022  RH  037%=      5-min Rain = 0
KBWS 152135Z 30004G9KT 13/M02 A3017 RMK A01 T01261023  RH  036%=      5-min Rain = 0
KBWS 152140Z 33005KT 12/M03 A3017 RMK A01 T01241029  RH  035%=      5-min Rain = 0
KBWS 152145Z 35005KT 12/M03 A3017 RMK A01 T01241026  RH  035%=      5-min Rain = 0
KBWS 152150Z 34005KT 12/M03 A3017 RMK A01 T01231031  RH  034%=      5-min Rain = 0
KBWS 152155Z 36005KT 12/M03 A3017 RMK A01 T01231028  RH  035%=      5-min Rain = 0
KBWS 152200Z 03003KT 12/M03 A3017 RMK A01 T01231030  RH  035%=      5-min Rain = 0
KBWS 152205Z 04001KT 12/M03 A3016 RMK A01 T01231034  RH  034%=      5-min Rain = 0
KBWS 152210Z 35001KT 13/M03 A3016 RMK A01 T01261031  RH  034%=      5-min Rain = 0
KBWS 152215Z 36006KT 13/M04 A3016 RMK A01 T01261036  RH  033%=      5-min Rain = 0
KBWS 152220Z 00005KT 12/M04 A3016 RMK A01 T01241036  RH  033%=      5-min Rain = 0
KBWS 152225Z 34007KT 13/M03 A3016 RMK A01 T01261030  RH  034%=      5-min Rain = 0
KBWS 152230Z 33005KT 13/M03 A3016 RMK A01 T01281026  RH  035%=      5-min Rain = 0
KBWS 152235Z 34006KT 13/M03 A3015 RMK A01 T01271028  RH  034%=      5-min Rain = 0
KBWS 152240Z 33005KT 13/M03 A3015 RMK A01 T01251032  RH  034%=      5-min Rain = 0
KBWS 152245Z 32004KT 13/M03 A3015 RMK A01 T01261032  RH  033%=      5-min Rain = 0
KBWS 152250Z 29007KT 13/M03 A3015 RMK A01 T01281026  RH  035%=      5-min Rain = 0
KBWS 152255Z 30003KT 13/M03 A3015 RMK A01 T01301029  RH  033%=      5-min Rain = 0
KBWS 152300Z 32001KT 13/M03 A3015 RMK A01 T01301034  RH  032%=      5-min Rain = 0
KBWS 152305Z 36002KT 13/M04 A3015 RMK A01 T01291036  RH  032%=      5-min Rain = 0
KBWS 152310Z 27005KT 13/M03 A3015 RMK A01 T01311030  RH  033%=      5-min Rain = 0
KBWS 152315Z 28005KT 13/M03 A3015 RMK A01 T01301027  RH  034%=      5-min Rain = 0
KBWS 152320Z 26004KT 13/M03 A3015 RMK A01 T01291032  RH  033%=      5-min Rain = 0
KBWS 152325Z 28005KT 13/M03 A3014 RMK A01 T01281031  RH  033%=      5-min Rain = 0
KBWS 152330Z 27005KT 13/M03 A3014 RMK A01 T01271034  RH  033%=      5-min Rain = 0
KBWS 152335Z 29004KT 13/M03 A3014 RMK A01 T01271034  RH  033%=      5-min Rain = 0
KBWS 152340Z 31004KT 13/M04 A3014 RMK A01 T01251038  RH  032%=      5-min Rain = 0
KBWS 152345Z 29003KT 13/M03 A3014 RMK A01 T01261031  RH  034%=      5-min Rain = 0
KBWS 152350Z 26003KT 13/M03 A3014 RMK A01 T01271031  RH  034%=      5-min Rain = 0
KBWS 152355Z 26003KT 13/M03 A3014 RMK A01 T01251032  RH  034%=      5-min Rain = 0
KBWS 160000Z 27003KT 12/M03 A3014 RMK A01 T01241029  RH  035%=      5-min Rain = 0
KBWS 160005Z 28002KT 12/M03 A3014 RMK A01 T01241027  RH  035%=      5-min Rain = 0
KBWS 160010Z 26003KT 12/M03 A3014 RMK A01 T01231026  RH  036%=      5-min Rain = 0
KBWS 160015Z 26002KT 12/M03 A3014 RMK A01 T01191028  RH  036%=      5-min Rain = 0
KBWS 160020Z 25002KT 12/M03 A3014 RMK A01 T01181026  RH  037%=      5-min Rain = 0
KBWS 160025Z 24002KT 12/M03 A3014 RMK A01 T01171031  RH  036%=      5-min Rain = 0
KBWS 160030Z 23001KT 12/M03 A3014 RMK A01 T01161034  RH  035%=      5-min Rain = 0
KBWS 160035Z 22002KT 11/M03 A3014 RMK A01 T01121027  RH  038%=      5-min Rain = 0
KBWS 160040Z 20003KT 11/M02 A3014 RMK A01 T01091022  RH  041%=      5-min Rain = 0
KBWS 160045Z 19003KT 10/M01 A3014 RMK A01 T01041013  RH  045%=      5-min Rain = 0
KBWS 160050Z 17003KT 10/M01 A3013 RMK A01 T01001007  RH  048%=      5-min Rain = 0
KBWS 160055Z 16003KT 10/M01 A3014 RMK A01 T00971005  RH  049%=      5-min Rain = 0
KBWS 160100Z 16003KT 09/M00 A3013 RMK A01 T00941002  RH  051%=      5-min Rain = 0
KBWS 160105Z 18003KT 09/M00 A3013 RMK A01 T00911003  RH  052%=      5-min Rain = 0
KBWS 160110Z 19003KT 09/M00 A3014 RMK A01 T00901002  RH  053%=      5-min Rain = 0
KBWS 160115Z 19003KT 09/M00 A3014 RMK A01 T00881003  RH  053%=      5-min Rain = 0
KBWS 160120Z 19003KT 09/M01 A3014 RMK A01 T00881011  RH  050%=      5-min Rain = 0
KBWS 160125Z 18003KT 09/M02 A3014 RMK A01 T00901015  RH  048%=      5-min Rain = 0
KBWS 160130Z 18003KT 09/M01 A3014 RMK A01 T00881013  RH  050%=      5-min Rain = 0
KBWS 160135Z 18003KT 08/M01 A3014 RMK A01 T00841009  RH  053%=      5-min Rain = 0
KBWS 160140Z 19003KT 08/M01 A3014 RMK A01 T00811007  RH  054%=      5-min Rain = 0
KBWS 160145Z 18003KT 08/00 A3014 RMK A01 T00790000  RH  058%=      5-min Rain = 0
KBWS 160150Z 18003KT 08/M01 A3014 RMK A01 T00781005  RH  056%=      5-min Rain = 0
KBWS 160155Z 18003KT 08/M01 A3014 RMK A01 T00751005  RH  058%=      5-min Rain = 0
KBWS 160200Z 18004KT 07/M01 A3014 RMK A01 T00731013  RH  055%=      5-min Rain = 0
KBWS 160205Z 18005KT 08/M02 A3014 RMK A01 T00811019  RH  050%=      5-min Rain = 0
KBWS 160210Z 19006KT 08/M01 A3014 RMK A01 T00791013  RH  053%=      5-min Rain = 0
KBWS 160215Z 19007KT 07/M01 A3014 RMK A01 T00741009  RH  056%=      5-min Rain = 0
KBWS 160220Z 19007KT 07/M01 A3014 RMK A01 T00711007  RH  058%=      5-min Rain = 0
KBWS 160225Z 18008KT 07/M00 A3014 RMK A01 T00691003  RH  061%=      5-min Rain = 0
KBWS 160230Z 18009KT 07/M01 A3014 RMK A01 T00691005  RH  060%=      5-min Rain = 0
KBWS 160235Z 17008KT 07/M00 A3014 RMK A01 T00671001  RH  063%=      5-min Rain = 0
KBWS 160240Z 18008KT 07/00 A3014 RMK A01 T00650000  RH  064%=      5-min Rain = 0
KBWS 160245Z 18007KT 06/00 A3014 RMK A01 T00620001  RH  066%=      5-min Rain = 0
KBWS 160250Z 19008KT 06/00 A3014 RMK A01 T00590000  RH  067%=      5-min Rain = 0
KBWS 160255Z 19008KT 06/00 A3014 RMK A01 T00580000  RH  067%=      5-min Rain = 0
KBWS 160300Z 19008KT 06/00 A3014 RMK A01 T00570001  RH  068%=      5-min Rain = 0
KBWS 160305Z 19009KT 06/00 A3014 RMK A01 T005700-0  RH  068%=      5-min Rain = 0
KBWS 160310Z 19009KT 06/M00 A3015 RMK A01 T00581001  RH  066%=      5-min Rain = 0
KBWS 160315Z 19009KT 06/00 A3015 RMK A01 T005800-0  RH  067%=      5-min Rain = 0
KBWS 160320Z 19009KT 06/M00 A3014 RMK A01 T00571001  RH  067%=      5-min Rain = 0
KBWS 160325Z 19008KT 06/M00 A3014 RMK A01 T00571001  RH  067%=      5-min Rain = 0
KBWS 160330Z 20008KT 05/M00 A3015 RMK A01 T00541001  RH  069%=      5-min Rain = 0
KBWS 160335Z 20008KT 05/M00 A3015 RMK A01 T00511002  RH  069%=      5-min Rain = 0
KBWS 160340Z 21008KT 05/M00 A3015 RMK A01 T00501002  RH  070%=      5-min Rain = 0
KBWS 160345Z 21008KT 05/M00 A3015 RMK A01 T00501002  RH  070%=      5-min Rain = 0
KBWS 160350Z 21008KT 05/M00 A3015 RMK A01 T00481002  RH  071%=      5-min Rain = 0
KBWS 160355Z 20007KT 05/M00 A3015 RMK A01 T00491003  RH  070%=      5-min Rain = 0
KBWS 160400Z 21008KT 05/M01 A3015 RMK A01 T00491005  RH  069%=      5-min Rain = 0
KBWS 160405Z 21008KT 05/M01 A3015 RMK A01 T00491005  RH  069%=      5-min Rain = 0
KBWS 160410Z 21007KT 05/M00 A3015 RMK A01 T00461004  RH  071%=      5-min Rain = 0
KBWS 160415Z 21007KT 05/M00 A3015 RMK A01 T00461004  RH  071%=      5-min Rain = 0
KBWS 160420Z 21007KT 04/M00 A3015 RMK A01 T00441003  RH  072%=      5-min Rain = 0
KBWS 160425Z 21007KT 04/M00 A3015 RMK A01 T00421004  RH  073%=      5-min Rain = 0
KBWS 160430Z 21007KT 04/M00 A3015 RMK A01 T00411003  RH  074%=      5-min Rain = 0
KBWS 160435Z 21007KT 04/M00 A3014 RMK A01 T00401003  RH  074%=      5-min Rain = 0
KBWS 160440Z 22008KT 04/M00 A3014 RMK A01 T00401004  RH  074%=      5-min Rain = 0
KBWS 160445Z 22008KT 04/M01 A3014 RMK A01 T00421005  RH  072%=      5-min Rain = 0
KBWS 160450Z 23007KT 04/M01 A3015 RMK A01 T00411005  RH  073%=      5-min Rain = 0
KBWS 160455Z 24007KT 04/M01 A3015 RMK A01 T00391005  RH  074%=      5-min Rain = 0
KBWS 160500Z 24007KT 04/M01 A3015 RMK A01 T00361005  RH  075%=      5-min Rain = 0
KBWS 160505Z 24007KT 04/M01 A3015 RMK A01 T00371006  RH  074%=      5-min Rain = 0
KBWS 160510Z 24007KT 04/M01 A3015 RMK A01 T00371007  RH  074%=      5-min Rain = 0
KBWS 160515Z 24007KT 04/M01 A3015 RMK A01 T00351007  RH  075%=      5-min Rain = 0
KBWS 160520Z 24007KT 03/M01 A3015 RMK A01 T00331008  RH  075%=      5-min Rain = 0
KBWS 160525Z 24007KT 03/M01 A3015 RMK A01 T00331009  RH  075%=      5-min Rain = 0
KBWS 160530Z 24007KT 03/M01 A3014 RMK A01 T00331010  RH  074%=      5-min Rain = 0
KBWS 160535Z 24008KT 04/M01 A3014 RMK A01 T00351012  RH  072%=      5-min Rain = 0
KBWS 160540Z 23008KT 04/M01 A3014 RMK A01 T00361012  RH  072%=      5-min Rain = 0
KBWS 160545Z 23007KT 04/M01 A3014 RMK A01 T00371013  RH  071%=      5-min Rain = 0
KBWS 160550Z 23007KT 04/M01 A3014 RMK A01 T00371013  RH  071%=      5-min Rain = 0
KBWS 160555Z 23006KT 04/M01 A3014 RMK A01 T00351014  RH  071%=      5-min Rain = 0

Page generated in 0.0197 seconds.